Aérodrome :
LOGIN :

S'inscrire | Disclaimer

   EN    FR    IT 

 










Légende :    VFR   VFR Marginal   IFR   IFR Intensif   IFR Très Intensif
Visi : 
Plafond : 
>= 8 km
>= 3000ft
5 à 8 km
1000 à 3000 ft
1500m à 5 km
500 à 1000 ft
800 à 1500m
200 à 500 ft
< 800m
< 200 ft
Symboles :   Orages  Brouillard  Fortes neiges  Fortes précipitations  Vent > 20 kt
SIGMETs :   Divers  Orages  Givrage  Turbulence  Onde Orograph.  Cendres Volcan.







- Altitude de l'aérodrome : 160 ft
- Code IATA : LRT
- Voir les cartes d'approche


LFRH - Lorient Lann Bihoue

DERNIER METAR :
  • 161300Z AUTO 14008KT 0900 R25/1300U R07/1200U FG VV/// 08/08 Q1024 TEMPO 2500 BR

METARs EXPIRÉS :
  • 161230Z AUTO 14007KT 0500 0450 R25/0600N R07/0800N FG VV/// 08/08 Q1025 BECMG 3500 BR OVC004
  • 161200Z AUTO 14007KT 0600 0550 R25/0650D R07/1900D FG VV/// 09/09 Q1025 BECMG 3500 BR OVC004
  • 161130Z AUTO 14007KT 0900 0550 R25/0700D R07/1600D FG VV/// 08/08 Q1026 BECMG 3500 BR OVC004
  • 161100Z AUTO 15007KT 0500 0450 R25/0600N R07/0900U FG VV/// 08/08 Q1026 BECMG 09010KT 3000 BR BKN003
  • 161030Z AUTO 16008KT 0450 R25/0550N R07/0600N FG VV/// 08/08 Q1026 BECMG 09010KT 3000 BR BKN003

TAF AMD TAF LFRH
Valide du 16 à 12h jusqu'au 17 à 12h UTC


161239Z 1612/1712 14005KT 0600 FG VV///
PROB30
TEMPO 1614/1617 2500 BR OVC002
TEMPO 1701/1707 0500
BECMG 1710/1712 22005KT 9999 BKN009 BKN017
Pas de NOTAMs connus pour ce terrain.



MET'MAP, la Météo Aéronautique d'un coup d'oeil ! - Copyright ORBIFLY Décembre 2007 - Disclaimer

ORBIFLY MET'MAP TEAM :

Programmation & Développement : Alexandra Zaïnal
Conception & Développement : Baudouin d'Aumeries
Co-Programmation & Développement : Marc-Olivier Méhu
Soutien technique & logistique : Manuel Goepfert

Contact : metmap@orbifly.com




SOURCES & CREDITS :

   NOAA